createdAt,value
2018-11-20T00:05:12.934Z,8.20
2018-11-20T00:10:57.896Z,8.43
2018-11-20T00:16:46.619Z,8.63
2018-11-20T00:22:15.579Z,9.17
2018-11-20T00:27:52.688Z,10.60
2018-11-20T00:33:31.279Z,10.77
2018-11-20T00:39:13.132Z,11.07
2018-11-20T00:44:41.426Z,11.70
2018-11-20T00:50:29.383Z,10.75
2018-11-20T00:56:58.881Z,10.60
2018-11-20T01:02:37.687Z,11.23
2018-11-20T01:08:22.705Z,12.30
2018-11-20T01:14:00.026Z,11.60
2018-11-20T01:19:38.665Z,13.40
2018-11-20T01:25:17.992Z,12.05
2018-11-20T01:31:08.430Z,13.20
2018-11-20T01:36:43.309Z,13.33
2018-11-20T01:42:28.292Z,13.57
2018-11-20T01:48:18.694Z,13.43
2018-11-20T01:53:56.444Z,13.83
2018-11-20T01:59:29.386Z,14.63
2018-11-20T02:05:07.163Z,13.60
2018-11-20T02:10:48.503Z,14.27
2018-11-20T02:16:36.673Z,13.63
2018-11-20T02:22:14.536Z,14.17
2018-11-20T02:27:56.408Z,13.67
2018-11-20T02:33:34.459Z,13.73
2018-11-20T02:39:14.001Z,15.70
2018-11-20T02:44:52.390Z,15.00
2018-11-20T02:50:30.864Z,14.30
2018-11-20T02:56:19.240Z,15.20
2018-11-20T03:02:06.889Z,15.83
2018-11-20T03:08:04.227Z,14.60
2018-11-20T03:13:46.330Z,14.80
2018-11-20T03:19:25.119Z,14.03
2018-11-20T03:25:03.286Z,14.37
2018-11-20T03:31:15.817Z,15.25
2018-11-20T03:37:03.611Z,15.13
2018-11-20T03:42:51.245Z,13.43
2018-11-20T03:48:30.206Z,13.83
2018-11-20T03:54:06.971Z,14.77
2018-11-20T03:59:48.793Z,14.00
2018-11-20T04:05:20.821Z,14.03
2018-11-20T04:10:59.451Z,13.70
2018-11-20T04:16:50.641Z,12.77
2018-11-20T04:22:41.768Z,13.27
2018-11-20T04:28:18.887Z,12.50
2018-11-20T04:34:17.607Z,11.50
2018-11-20T04:39:55.323Z,12.43
2018-11-20T04:45:33.349Z,11.70
2018-11-20T04:51:17.992Z,11.63
2018-11-20T04:57:06.137Z,11.30
2018-11-20T05:02:47.829Z,11.90
2018-11-20T05:08:42.017Z,12.67
2018-11-20T05:14:30.011Z,12.20
2018-11-20T05:20:07.747Z,11.30
2018-11-20T05:25:44.920Z,12.40
2018-11-20T05:31:22.838Z,11.50
2018-11-20T05:36:51.879Z,12.63
2018-11-20T05:42:29.501Z,12.67
2018-11-20T05:48:14.226Z,11.33
2018-11-20T05:53:49.586Z,12.43
2018-11-20T05:59:27.443Z,11.33
2018-11-20T06:05:24.420Z,12.23
2018-11-20T06:11:12.434Z,11.20
2018-11-20T06:16:55.264Z,12.03
2018-11-20T06:22:46.175Z,11.73
2018-11-20T06:28:28.157Z,13.23
2018-11-20T06:34:05.976Z,12.47
2018-11-20T06:39:50.519Z,12.70
2018-11-20T06:45:22.968Z,11.88
2018-11-20T06:51:00.400Z,12.83
2018-11-20T06:56:37.956Z,12.18
2018-11-20T07:02:15.337Z,12.60
2018-11-20T07:07:53.163Z,13.57
2018-11-20T07:13:54.421Z,11.90
2018-11-20T07:19:32.417Z,12.65
2018-11-20T07:25:11.064Z,12.80
2018-11-20T07:30:53.706Z,13.03
2018-11-20T07:36:39.370Z,13.00
2018-11-20T07:42:33.359Z,12.13
2018-11-20T07:48:10.695Z,12.53
2018-11-20T07:53:55.531Z,12.80
2018-11-20T07:59:33.200Z,13.33
2018-11-20T08:05:06.899Z,13.80
2018-11-20T08:10:32.975Z,13.63
2018-11-20T08:16:14.456Z,13.50
2018-11-20T08:21:51.843Z,14.40
2018-11-20T08:27:45.367Z,14.03
2018-11-20T08:33:22.720Z,15.13
2018-11-20T08:39:07.178Z,14.57
2018-11-20T08:44:44.436Z,14.67
2018-11-20T08:50:21.256Z,14.98
2018-11-20T08:55:53.761Z,13.50
2018-11-20T09:01:27.690Z,15.57
2018-11-20T09:07:12.918Z,15.23
2018-11-20T09:12:50.117Z,15.33
2018-11-20T09:18:27.547Z,14.80
2018-11-20T09:24:12.558Z,15.90
2018-11-20T09:29:41.596Z,14.17
2018-11-20T09:35:19.234Z,14.80
2018-11-20T09:41:07.029Z,14.77
2018-11-20T09:46:44.143Z,15.53
2018-11-20T09:52:25.617Z,14.47
2018-11-20T09:57:57.029Z,13.80
2018-11-20T10:03:48.215Z,13.43
2018-11-20T10:09:29.865Z,13.37
2018-11-20T10:15:05.472Z,13.43
2018-11-20T10:20:43.145Z,13.90
2018-11-20T10:26:24.907Z,14.10
2018-11-20T10:32:10.552Z,13.67
2018-11-20T10:37:48.046Z,13.50
2018-11-20T10:43:32.840Z,13.10
2018-11-20T10:49:10.568Z,13.20
2018-11-20T10:54:52.831Z,12.95
2018-11-20T11:00:30.538Z,13.28
2018-11-20T11:06:00.224Z,12.73
2018-11-20T11:11:38.191Z,12.83
2018-11-20T11:17:29.444Z,12.43
2018-11-20T11:23:11.333Z,12.82
2018-11-20T11:28:51.416Z,13.47
2018-11-20T11:34:34.932Z,12.33
2018-11-20T11:40:02.892Z,12.87
2018-11-20T11:45:47.697Z,12.50
2018-11-20T11:51:14.605Z,12.82
2018-11-20T11:56:52.649Z,13.40
2018-11-20T12:08:18.047Z,13.47
2018-11-20T12:13:55.502Z,13.57
2018-11-20T12:19:32.865Z,13.08
2018-11-20T12:25:08.067Z,13.47
2018-11-20T12:30:47.109Z,13.47
2018-11-20T12:36:30.521Z,15.00
2018-11-20T12:42:02.551Z,13.23
2018-11-20T12:47:37.860Z,13.80
2018-11-20T12:53:21.271Z,14.38
2018-11-20T12:58:53.994Z,15.00
2018-11-20T13:04:29.783Z,15.00
2018-11-20T13:10:07.284Z,15.93
2018-11-20T13:15:47.113Z,16.47
2018-11-20T13:21:27.542Z,14.77
2018-11-20T13:27:04.880Z,17.13
2018-11-20T13:32:40.648Z,17.07
2018-11-20T13:38:37.409Z,15.60
2018-11-20T13:44:18.935Z,16.47
2018-11-20T13:49:57.458Z,17.47
2018-11-20T13:55:35.726Z,15.63
2018-11-20T14:01:23.027Z,15.87
2018-11-20T14:07:05.050Z,17.10
2018-11-20T14:13:01.606Z,17.70
2018-11-20T14:18:35.691Z,17.40
2018-11-20T14:24:17.140Z,16.73
2018-11-20T14:29:56.171Z,16.50
2018-11-20T14:35:35.398Z,17.07
2018-11-20T14:41:19.773Z,15.72
2018-11-20T14:47:09.646Z,17.07
2018-11-20T14:53:00.630Z,16.20
2018-11-20T14:58:42.552Z,18.10
2018-11-20T15:04:19.654Z,17.27
2018-11-20T15:10:09.591Z,19.33
2018-11-20T15:15:47.466Z,15.93
2018-11-20T15:21:26.241Z,15.67
2018-11-20T15:27:04.227Z,14.47
2018-11-20T15:32:41.719Z,14.70
2018-11-20T15:38:22.840Z,14.20
2018-11-20T15:44:07.241Z,13.60
2018-11-20T15:49:58.792Z,14.53
2018-11-20T15:55:36.543Z,12.30
2018-11-20T16:01:22.921Z,12.40
2018-11-20T16:07:01.540Z,11.17
2018-11-20T16:12:32.255Z,10.77
2018-11-20T16:18:07.160Z,10.43
2018-11-20T16:23:45.414Z,10.33
2018-11-20T16:29:32.791Z,9.40
2018-11-20T16:35:10.272Z,9.10
2018-11-20T16:40:55.200Z,9.90
2018-11-20T16:46:34.324Z,9.63
2018-11-20T16:52:11.632Z,10.27
2018-11-20T16:57:49.064Z,10.10
2018-11-20T17:03:34.169Z,9.83
2018-11-20T17:09:12.613Z,10.83
2018-11-20T17:15:09.769Z,9.68
2018-11-20T17:20:51.844Z,10.37
2018-11-20T17:26:31.952Z,10.47
2018-11-20T17:32:10.202Z,10.83
2018-11-20T17:37:49.422Z,11.70
2018-11-20T17:43:39.923Z,11.07
2018-11-20T17:49:25.172Z,12.53
2018-11-20T17:55:16.324Z,12.13
2018-11-20T18:00:55.977Z,12.10
2018-11-20T18:06:40.886Z,10.53
2018-11-20T18:12:19.816Z,13.20
2018-11-20T18:18:01.913Z,12.07
2018-11-20T18:23:49.812Z,12.13
2018-11-20T18:29:31.372Z,13.07
2018-11-20T18:35:09.169Z,12.17
2018-11-20T18:40:56.781Z,12.23
2018-11-20T18:46:43.774Z,12.93
2018-11-20T18:52:25.033Z,11.20
2018-11-20T18:58:02.282Z,12.37
2018-11-20T19:03:44.533Z,10.43
2018-11-20T19:09:23.566Z,11.30
2018-11-20T19:15:08.051Z,10.93
2018-11-20T19:20:49.458Z,11.50
2018-11-20T19:26:36.950Z,11.23
2018-11-20T19:32:14.134Z,11.23
2018-11-20T19:37:51.586Z,10.00
2018-11-20T19:43:36.885Z,11.87
2018-11-20T19:49:24.753Z,11.90
2018-11-20T19:55:04.176Z,10.70
2018-11-20T20:07:16.850Z,11.83
2018-11-20T20:12:53.242Z,10.67
2018-11-20T20:18:34.869Z,10.57
2018-11-20T20:24:04.051Z,11.47
2018-11-20T20:29:37.346Z,11.03
2018-11-20T20:35:15.198Z,11.97
2018-11-20T20:41:04.885Z,11.30
2018-11-20T20:46:45.241Z,11.87
2018-11-20T20:52:20.845Z,12.97
2018-11-20T20:58:09.011Z,12.37
2018-11-20T21:03:53.190Z,11.73
2018-11-20T21:09:40.277Z,11.77
2018-11-20T21:15:20.985Z,12.03
2018-11-20T21:20:58.363Z,11.47
2018-11-20T21:26:37.277Z,10.83
2018-11-20T21:32:14.192Z,11.85
2018-11-20T21:37:58.338Z,11.47
2018-11-20T21:43:48.678Z,11.00
2018-11-20T21:49:53.027Z,12.87
2018-11-20T21:55:50.285Z,11.75
2018-11-20T22:01:32.662Z,11.87
2018-11-20T22:07:15.519Z,12.97
2018-11-20T22:12:52.769Z,11.70
2018-11-20T22:18:43.234Z,12.67
2018-11-20T22:24:21.555Z,12.47
2018-11-20T22:29:59.495Z,13.13
2018-11-20T22:35:36.705Z,12.30
2018-11-20T22:41:28.122Z,12.50
2018-11-20T22:47:14.666Z,13.07
2018-11-20T22:52:50.869Z,12.83
2018-11-20T22:58:31.917Z,13.40
2018-11-20T23:04:08.712Z,13.03
2018-11-20T23:09:29.161Z,13.28
2018-11-20T23:14:49.251Z,12.20
2018-11-20T23:20:14.832Z,14.20
2018-11-20T23:25:34.458Z,14.23
2018-11-20T23:30:53.540Z,13.33
2018-11-20T23:36:29.000Z,13.90
2018-11-20T23:41:49.054Z,14.43
2018-11-20T23:47:08.654Z,16.30
2018-11-20T23:52:29.865Z,14.87
2018-11-20T23:57:50.227Z,14.97
